createdAt,value
2022-11-16T00:01:54.837Z,72.38
2022-11-16T00:04:22.686Z,70.28
2022-11-16T00:06:50.494Z,80.15
2022-11-16T00:09:24.095Z,77.05
2022-11-16T00:11:56.821Z,71.15
2022-11-16T00:14:27.852Z,76.53
2022-11-16T00:16:56.386Z,66.82
2022-11-16T00:19:25.494Z,75.65
2022-11-16T00:21:56.524Z,81.35
2022-11-16T00:25:04.875Z,75.15
2022-11-16T00:27:34.946Z,84.15
2022-11-16T00:30:50.497Z,73.55
2022-11-16T00:35:39.721Z,68.40
2022-11-16T00:38:09.220Z,83.47
2022-11-16T00:40:36.175Z,73.57
2022-11-16T00:43:03.801Z,86.55
2022-11-16T00:45:34.250Z,85.35
2022-11-16T00:48:01.566Z,77.18
2022-11-16T00:50:38.318Z,76.88
2022-11-16T00:53:06.937Z,74.65
2022-11-16T00:55:34.655Z,83.35
2022-11-16T00:58:02.031Z,72.45
2022-11-16T01:00:29.038Z,93.22
2022-11-16T01:02:58.170Z,81.80
2022-11-16T01:05:25.030Z,83.70
2022-11-16T01:07:53.997Z,87.40
2022-11-16T01:10:22.975Z,97.25
2022-11-16T01:12:57.867Z,88.25
2022-11-16T01:15:37.811Z,93.85
2022-11-16T01:18:05.209Z,111.13
2022-11-16T01:20:32.409Z,96.70
2022-11-16T01:23:02.264Z,97.32
2022-11-16T01:25:29.245Z,86.93
2022-11-16T01:27:57.667Z,83.53
2022-11-16T01:30:25.589Z,83.32
2022-11-16T01:32:56.862Z,82.30
2022-11-16T01:35:24.493Z,92.57
2022-11-16T01:37:52.407Z,95.13
2022-11-16T01:40:20.757Z,98.72
2022-11-16T01:42:52.602Z,95.18
2022-11-16T01:45:35.175Z,98.25
2022-11-16T01:48:03.649Z,94.80
2022-11-16T01:50:30.770Z,81.00
2022-11-16T01:53:02.455Z,81.35
2022-11-16T01:55:32.349Z,75.35
2022-11-16T01:58:00.823Z,84.13
2022-11-16T02:00:30.525Z,96.93
2022-11-16T02:02:57.822Z,80.22
2022-11-16T02:05:34.390Z,92.38
2022-11-16T02:08:50.883Z,84.10
2022-11-16T02:11:32.821Z,87.28
2022-11-16T02:14:02.484Z,82.97
2022-11-16T02:16:49.614Z,89.45
2022-11-16T02:19:37.424Z,87.20
2022-11-16T02:22:42.478Z,80.30
2022-11-16T02:25:24.718Z,83.30
2022-11-16T02:28:18.993Z,80.18
2022-11-16T02:30:50.580Z,86.85
2022-11-16T02:33:22.088Z,75.00
2022-11-16T02:35:54.790Z,80.65
2022-11-16T02:38:28.080Z,71.10
2022-11-16T02:41:03.400Z,77.75
2022-11-16T02:43:36.622Z,76.93
2022-11-16T02:46:09.275Z,75.22
2022-11-16T02:48:41.836Z,74.10
2022-11-16T02:51:09.468Z,85.28
2022-11-16T02:54:03.041Z,79.72
2022-11-16T02:56:30.695Z,68.30
2022-11-16T02:58:59.422Z,72.93
2022-11-16T03:01:35.582Z,70.32
2022-11-16T03:04:10.233Z,80.75
2022-11-16T03:06:40.023Z,81.43
2022-11-16T03:09:15.766Z,74.68
2022-11-16T03:12:03.078Z,70.03
2022-11-16T03:14:47.734Z,74.70
2022-11-16T03:17:29.758Z,76.47
2022-11-16T03:20:05.072Z,79.65
2022-11-16T03:22:56.296Z,77.63
2022-11-16T03:25:26.335Z,86.53
2022-11-16T03:28:04.125Z,69.53
2022-11-16T03:30:36.706Z,86.75
2022-11-16T03:33:30.944Z,85.28
2022-11-16T03:36:07.851Z,81.93
2022-11-16T03:38:37.680Z,96.32
2022-11-16T03:41:09.614Z,88.00
2022-11-16T03:43:39.414Z,88.75
2022-11-16T03:46:06.388Z,86.97
2022-11-16T03:48:38.160Z,86.82
2022-11-16T03:51:07.219Z,78.93
2022-11-16T03:53:34.420Z,90.55
2022-11-16T03:56:01.104Z,90.78
2022-11-16T03:58:28.342Z,83.88
2022-11-16T04:00:55.589Z,84.07
2022-11-16T04:03:22.340Z,82.50
2022-11-16T04:06:08.115Z,81.78
2022-11-16T04:08:53.811Z,87.40
2022-11-16T04:11:41.073Z,70.43
2022-11-16T04:14:33.867Z,81.82
2022-11-16T04:17:19.159Z,80.03
2022-11-16T04:20:04.856Z,81.40
2022-11-16T04:23:02.920Z,72.80
2022-11-16T04:25:34.971Z,72.00
2022-11-16T04:28:16.629Z,73.75
2022-11-16T04:31:13.513Z,78.95
2022-11-16T04:33:59.186Z,75.97
2022-11-16T04:36:44.970Z,75.55
2022-11-16T04:39:11.689Z,76.28
2022-11-16T04:41:57.628Z,66.90
2022-11-16T04:44:29.763Z,64.65
2022-11-16T04:47:08.952Z,71.43
2022-11-16T04:49:36.116Z,72.10
2022-11-16T04:52:03.008Z,63.33
2022-11-16T04:54:29.694Z,74.35
2022-11-16T04:56:56.410Z,69.70
2022-11-16T04:59:23.559Z,71.65
2022-11-16T05:02:08.282Z,73.32
2022-11-16T05:04:43.465Z,63.25
2022-11-16T05:07:12.755Z,64.80
2022-11-16T05:09:42.861Z,73.25
2022-11-16T05:12:15.683Z,55.67
2022-11-16T05:14:43.594Z,59.75
2022-11-16T05:17:10.962Z,57.20
2022-11-16T05:19:57.123Z,58.72
2022-11-16T05:22:24.909Z,54.00
2022-11-16T05:24:51.700Z,57.75
2022-11-16T05:27:21.884Z,58.53
2022-11-16T05:29:50.203Z,54.38
2022-11-16T05:32:18.490Z,50.72
2022-11-16T05:34:49.669Z,63.97
2022-11-16T05:37:17.509Z,58.20
2022-11-16T05:39:44.906Z,51.58
2022-11-16T05:42:12.035Z,54.33
2022-11-16T05:44:38.790Z,59.08
2022-11-16T05:47:06.367Z,50.45
2022-11-16T05:49:34.657Z,62.55
2022-11-16T05:52:01.506Z,55.63
2022-11-16T05:54:28.272Z,62.85
2022-11-16T05:56:55.422Z,62.10
2022-11-16T05:59:23.197Z,55.58
2022-11-16T06:01:51.077Z,65.70
2022-11-16T06:04:24.511Z,68.97
2022-11-16T06:06:52.546Z,66.70
2022-11-16T06:09:19.392Z,67.85
2022-11-16T06:11:46.547Z,72.07
2022-11-16T06:14:13.825Z,76.43
2022-11-16T06:16:40.627Z,57.47
2022-11-16T06:19:07.380Z,62.28
2022-11-16T06:21:34.309Z,65.57
2022-11-16T06:24:03.105Z,69.20
2022-11-16T06:26:30.198Z,70.57
2022-11-16T06:28:57.035Z,64.28
2022-11-16T06:31:23.806Z,75.13
2022-11-16T06:33:50.564Z,62.70
2022-11-16T06:36:17.356Z,72.55
2022-11-16T06:38:44.546Z,52.10
2022-11-16T06:41:11.467Z,64.70
2022-11-16T06:43:38.386Z,66.43
2022-11-16T06:46:05.362Z,77.28
2022-11-16T06:48:34.328Z,63.35
2022-11-16T06:51:01.363Z,52.42
2022-11-16T06:53:30.051Z,69.95
2022-11-16T06:56:05.308Z,62.65
2022-11-16T06:58:33.396Z,76.43
2022-11-16T07:01:11.508Z,66.22
2022-11-16T07:03:39.438Z,60.13
2022-11-16T07:06:10.545Z,65.63
2022-11-16T07:08:38.074Z,58.30
2022-11-16T07:11:07.011Z,61.70
2022-11-16T07:13:35.215Z,74.32
2022-11-16T07:16:05.979Z,63.95
2022-11-16T07:18:35.753Z,67.10
2022-11-16T07:21:11.376Z,67.50
2022-11-16T07:23:40.169Z,61.53
2022-11-16T07:26:09.356Z,68.47
2022-11-16T07:28:36.610Z,68.57
2022-11-16T07:31:05.025Z,68.90
2022-11-16T07:33:32.133Z,56.03
2022-11-16T07:36:10.778Z,68.57
2022-11-16T07:38:39.064Z,54.22
2022-11-16T07:41:12.058Z,60.53
2022-11-16T07:43:40.416Z,62.47
2022-11-16T07:48:59.600Z,66.32
2022-11-16T07:51:27.960Z,75.88
2022-11-16T07:53:56.459Z,66.03
2022-11-16T07:56:23.912Z,63.60
2022-11-16T07:58:51.442Z,71.32
2022-11-16T08:01:19.495Z,64.95
2022-11-16T08:03:47.141Z,57.55
2022-11-16T08:06:21.133Z,59.20
2022-11-16T08:08:52.435Z,67.78
2022-11-16T08:11:24.439Z,80.43
2022-11-16T08:13:51.837Z,74.35
2022-11-16T08:16:21.172Z,73.20
2022-11-16T08:18:49.015Z,68.47
2022-11-16T08:21:17.543Z,98.47
2022-11-16T08:23:45.388Z,74.70
2022-11-16T08:26:17.870Z,78.47
2022-11-16T08:28:47.750Z,71.88
2022-11-16T08:31:21.119Z,64.25
2022-11-16T08:33:52.369Z,80.88
2022-11-16T08:36:20.747Z,79.60
2022-11-16T08:38:48.923Z,77.30
2022-11-16T08:41:17.836Z,80.75
2022-11-16T08:43:47.278Z,75.75
2022-11-16T08:46:14.560Z,75.57
2022-11-16T08:48:43.268Z,91.57
2022-11-16T08:51:17.980Z,83.30
2022-11-16T08:53:48.182Z,73.40
2022-11-16T08:56:17.437Z,75.53
2022-11-16T08:58:47.126Z,74.63
2022-11-16T09:01:23.114Z,66.38
2022-11-16T09:03:50.892Z,71.05
2022-11-16T09:06:17.831Z,68.90
2022-11-16T09:08:47.316Z,69.65
2022-11-16T09:11:18.149Z,65.53
2022-11-16T09:13:48.512Z,62.53
2022-11-16T09:16:16.716Z,70.93
2022-11-16T09:18:46.396Z,86.40
2022-11-16T09:21:24.511Z,84.25
2022-11-16T09:23:53.127Z,66.03
2022-11-16T09:26:23.044Z,69.57
2022-11-16T09:29:04.384Z,68.68
2022-11-16T09:31:35.391Z,75.88
2022-11-16T09:34:03.968Z,72.57
2022-11-16T09:36:31.756Z,81.85
2022-11-16T09:39:29.945Z,71.20
2022-11-16T09:41:59.024Z,64.38
2022-11-16T09:44:39.368Z,72.75
2022-11-16T09:47:13.626Z,54.28
2022-11-16T09:49:46.904Z,72.57
2022-11-16T09:52:29.239Z,65.20
2022-11-16T09:54:58.585Z,65.15
2022-11-16T09:57:32.608Z,53.85
2022-11-16T10:00:05.657Z,64.30
2022-11-16T10:03:20.056Z,56.20
2022-11-16T10:06:05.428Z,63.20
2022-11-16T10:08:51.900Z,60.30
2022-11-16T10:11:46.470Z,61.63
2022-11-16T10:14:14.405Z,65.57
2022-11-16T10:17:05.866Z,64.07
2022-11-16T10:19:55.406Z,57.65
2022-11-16T10:22:43.640Z,55.40
2022-11-16T10:25:24.828Z,62.50
2022-11-16T10:28:04.471Z,47.25
2022-11-16T10:30:38.328Z,44.25
2022-11-16T10:33:11.582Z,69.03
2022-11-16T10:35:44.742Z,48.30
2022-11-16T10:38:15.101Z,65.38
2022-11-16T10:40:44.823Z,57.42
2022-11-16T10:43:15.407Z,57.53
2022-11-16T10:46:01.517Z,46.90
2022-11-16T10:49:03.797Z,48.50
2022-11-16T10:51:32.528Z,43.58
2022-11-16T10:53:59.778Z,44.10
2022-11-16T10:56:38.319Z,45.58
2022-11-16T10:59:10.784Z,53.88
2022-11-16T11:01:53.750Z,55.75
2022-11-16T11:04:32.742Z,49.15
2022-11-16T11:07:20.319Z,50.30
2022-11-16T11:09:53.661Z,46.20
2022-11-16T11:12:40.841Z,50.10
2022-11-16T11:15:25.940Z,46.53
2022-11-16T11:18:13.991Z,46.30
2022-11-16T11:20:45.267Z,44.97
2022-11-16T11:23:22.935Z,38.50
2022-11-16T11:25:56.305Z,38.53
2022-11-16T11:28:28.568Z,42.58
2022-11-16T11:34:31.784Z,51.42
2022-11-16T11:37:32.634Z,43.28
2022-11-16T11:40:22.790Z,57.78
2022-11-16T11:43:05.067Z,44.88
2022-11-16T11:45:57.829Z,47.97
2022-11-16T11:48:52.455Z,48.92
2022-11-16T11:51:29.936Z,49.42
2022-11-16T11:54:00.898Z,58.63
2022-11-16T11:56:31.242Z,62.15
2022-11-16T11:58:58.997Z,65.85
2022-11-16T12:01:51.019Z,62.05
2022-11-16T12:04:49.721Z,68.18
2022-11-16T12:07:44.408Z,57.53
2022-11-16T12:10:33.316Z,59.70
2022-11-16T12:13:22.876Z,59.50
2022-11-16T12:16:13.702Z,68.25
2022-11-16T12:19:05.480Z,62.53
2022-11-16T12:22:06.570Z,51.08
2022-11-16T12:24:48.134Z,46.60
2022-11-16T12:27:49.219Z,48.58
2022-11-16T12:30:24.849Z,43.03
2022-11-16T12:33:10.724Z,43.25
2022-11-16T12:35:58.953Z,49.85
2022-11-16T12:38:27.580Z,44.75
2022-11-16T12:41:19.882Z,43.75
2022-11-16T12:44:01.102Z,41.40
2022-11-16T12:46:49.693Z,39.30
2022-11-16T12:49:39.249Z,35.50
2022-11-16T12:52:23.458Z,47.83
2022-11-16T12:55:25.878Z,37.10
2022-11-16T12:57:56.612Z,38.88
2022-11-16T13:00:23.898Z,38.90
2022-11-16T13:03:19.100Z,42.78
2022-11-16T13:06:01.241Z,42.55
2022-11-16T13:09:03.626Z,46.50
2022-11-16T13:11:39.511Z,48.90
2022-11-16T13:14:16.956Z,38.50
2022-11-16T13:16:46.451Z,47.90
2022-11-16T13:19:18.300Z,40.83
2022-11-16T13:22:32.691Z,42.67
2022-11-16T13:25:46.709Z,49.05
2022-11-16T13:28:34.872Z,47.17
2022-11-16T13:31:19.336Z,47.38
2022-11-16T13:33:51.214Z,43.17
2022-11-16T13:36:43.622Z,48.33
2022-11-16T13:39:20.570Z,54.25
2022-11-16T13:42:07.289Z,38.78
2022-11-16T13:44:35.907Z,44.85
2022-11-16T13:47:07.556Z,47.75
2022-11-16T13:50:07.287Z,44.63
2022-11-16T13:55:47.914Z,46.95
2022-11-16T13:58:24.053Z,54.95
2022-11-16T14:01:05.043Z,44.20
2022-11-16T14:03:39.666Z,41.45
2022-11-16T14:06:31.076Z,42.95
2022-11-16T14:09:32.985Z,48.65
2022-11-16T14:12:42.047Z,45.50
2022-11-16T14:15:26.506Z,43.28
2022-11-16T14:18:02.309Z,58.25
2022-11-16T14:20:56.604Z,51.75
2022-11-16T14:23:37.647Z,44.58
2022-11-16T14:26:36.090Z,39.50
2022-11-16T14:29:30.130Z,44.78
2022-11-16T14:31:59.303Z,46.70
2022-11-16T14:34:51.756Z,38.40
2022-11-16T14:37:30.870Z,50.63
2022-11-16T14:40:14.026Z,35.97
2022-11-16T14:45:55.124Z,34.33
2022-11-16T14:48:29.088Z,36.25
2022-11-16T14:51:15.365Z,30.67
2022-11-16T14:53:53.220Z,40.42
2022-11-16T14:56:21.847Z,37.78
2022-11-16T14:59:06.787Z,29.63
2022-11-16T15:01:38.004Z,37.92
2022-11-16T15:04:07.698Z,30.77
2022-11-16T15:07:24.823Z,28.13
2022-11-16T15:09:56.738Z,36.63
2022-11-16T15:12:50.641Z,37.10
2022-11-16T15:15:26.990Z,32.45
2022-11-16T15:18:02.582Z,27.65
2022-11-16T15:20:32.297Z,23.65
2022-11-16T15:23:01.542Z,30.02
2022-11-16T15:25:34.917Z,27.35
2022-11-16T15:28:17.818Z,28.83
2022-11-16T15:30:58.887Z,21.77
2022-11-16T15:33:32.574Z,27.52
2022-11-16T15:36:01.295Z,29.27
2022-11-16T15:38:32.981Z,28.88
2022-11-16T15:41:03.188Z,25.30
2022-11-16T15:43:41.057Z,27.73
2022-11-16T15:46:13.966Z,28.08
2022-11-16T15:48:43.976Z,25.73
2022-11-16T15:51:15.355Z,25.90
2022-11-16T15:53:48.403Z,26.52
2022-11-16T15:56:27.240Z,30.48
2022-11-16T15:58:56.498Z,24.65
2022-11-16T16:01:24.219Z,27.73
2022-11-16T16:03:59.991Z,24.30
2022-11-16T16:06:48.631Z,27.27
2022-11-16T16:09:32.524Z,21.20
2022-11-16T16:12:19.645Z,26.65
2022-11-16T16:14:49.507Z,24.02
2022-11-16T16:17:30.976Z,24.95
2022-11-16T16:20:04.981Z,28.15
2022-11-16T16:22:37.240Z,26.40
2022-11-16T16:25:06.210Z,33.65
2022-11-16T16:27:40.639Z,29.77
2022-11-16T16:30:08.736Z,28.77
2022-11-16T16:32:38.425Z,35.97
2022-11-16T16:35:07.511Z,30.55
2022-11-16T16:37:36.106Z,27.38
2022-11-16T16:40:03.782Z,30.85
2022-11-16T16:42:31.088Z,24.98
2022-11-16T16:45:01.332Z,26.63
2022-11-16T16:47:28.804Z,27.10
2022-11-16T16:49:55.742Z,26.23
2022-11-16T16:52:23.385Z,25.88
2022-11-16T16:54:51.426Z,26.23
2022-11-16T16:57:18.653Z,19.67
2022-11-16T16:59:46.316Z,20.30
2022-11-16T17:02:15.937Z,22.13
2022-11-16T17:04:44.753Z,20.05
2022-11-16T17:07:11.580Z,30.73
2022-11-16T17:09:39.731Z,23.83
2022-11-16T17:12:22.365Z,24.17
2022-11-16T17:14:53.308Z,23.00
2022-11-16T17:17:28.409Z,21.90
2022-11-16T17:19:57.724Z,21.83
2022-11-16T17:22:24.730Z,21.17
2022-11-16T17:24:55.124Z,25.45
2022-11-16T17:27:25.699Z,24.33
2022-11-16T17:32:47.984Z,23.75
2022-11-16T17:35:21.774Z,21.70
2022-11-16T17:37:55.461Z,19.90
2022-11-16T17:40:24.735Z,20.92
2022-11-16T17:42:54.544Z,18.65
2022-11-16T17:45:21.400Z,20.08
2022-11-16T17:47:48.768Z,20.13
2022-11-16T17:50:15.785Z,16.35
2022-11-16T17:52:42.782Z,18.17
2022-11-16T17:55:10.962Z,16.80
2022-11-16T17:57:37.839Z,17.48
2022-11-16T18:00:05.156Z,14.77
2022-11-16T18:02:34.691Z,13.05
2022-11-16T18:05:01.494Z,20.90
2022-11-16T18:07:30.811Z,18.35
2022-11-16T18:09:58.037Z,15.23
2022-11-16T18:12:27.574Z,14.57
2022-11-16T18:15:26.573Z,11.93
2022-11-16T18:17:44.984Z,16.63
2022-11-16T18:20:12.569Z,17.17
2022-11-16T18:22:44.073Z,17.15
2022-11-16T18:25:14.170Z,19.65
2022-11-16T18:27:41.031Z,21.38
2022-11-16T18:30:10.684Z,18.52
2022-11-16T18:32:41.498Z,17.02
2022-11-16T18:35:18.017Z,19.20
2022-11-16T18:38:02.113Z,18.77
2022-11-16T18:40:33.333Z,18.13
2022-11-16T18:43:07.778Z,17.52
2022-11-16T18:45:43.637Z,16.27
2022-11-16T18:48:21.085Z,20.60
2022-11-16T18:50:48.390Z,17.67
2022-11-16T18:53:15.308Z,18.73
2022-11-16T18:55:42.774Z,18.35
2022-11-16T18:58:28.910Z,17.73
2022-11-16T19:01:06.401Z,19.65
2022-11-16T19:03:34.513Z,21.05
2022-11-16T19:06:03.689Z,18.08
2022-11-16T19:08:31.538Z,19.40
2022-11-16T19:11:08.432Z,18.10
2022-11-16T19:13:43.732Z,24.55
2022-11-16T19:16:14.957Z,13.40
2022-11-16T19:18:43.197Z,15.25
2022-11-16T19:21:15.220Z,14.00
2022-11-16T19:23:48.914Z,15.15
2022-11-16T19:26:21.131Z,13.60
2022-11-16T19:28:59.752Z,16.05
2022-11-16T19:31:29.465Z,16.88
2022-11-16T19:34:10.104Z,14.00
2022-11-16T19:36:37.471Z,13.98
2022-11-16T19:39:05.466Z,16.85
2022-11-16T19:41:34.814Z,18.73
2022-11-16T19:44:04.353Z,16.63
2022-11-16T19:46:41.659Z,15.60
2022-11-16T19:49:19.505Z,16.80
2022-11-16T19:51:48.907Z,18.25
2022-11-16T19:54:16.827Z,18.77
2022-11-16T19:59:25.359Z,18.60
2022-11-16T20:01:52.930Z,19.50
2022-11-16T20:04:24.750Z,19.27
2022-11-16T20:06:55.722Z,18.10
2022-11-16T20:09:23.682Z,17.50
2022-11-16T20:11:50.823Z,21.20
2022-11-16T20:14:19.376Z,21.77
2022-11-16T20:16:50.703Z,23.20
2022-11-16T20:19:27.150Z,19.75
2022-11-16T20:21:55.912Z,21.45
2022-11-16T20:24:29.378Z,26.20
2022-11-16T20:27:05.455Z,20.75
2022-11-16T20:29:32.354Z,21.38
2022-11-16T20:32:01.871Z,24.00
2022-11-16T20:34:31.023Z,19.90
2022-11-16T20:37:08.478Z,21.10
2022-11-16T20:39:59.457Z,18.50
2022-11-16T20:42:27.449Z,21.20
2022-11-16T20:44:55.893Z,25.10
2022-11-16T20:47:28.392Z,22.33
2022-11-16T20:49:56.588Z,20.02
2022-11-16T20:55:10.727Z,17.80
2022-11-16T20:57:40.617Z,21.27
2022-11-16T21:00:08.538Z,23.73
2022-11-16T21:02:38.538Z,17.55
2022-11-16T21:05:06.227Z,17.83
2022-11-16T21:07:37.428Z,17.35
2022-11-16T21:10:22.210Z,18.13
2022-11-16T21:13:15.473Z,17.33
2022-11-16T21:15:43.103Z,18.27
2022-11-16T21:18:10.844Z,22.15
2022-11-16T21:20:42.795Z,18.90
2022-11-16T21:23:16.512Z,16.33
2022-11-16T21:25:48.325Z,19.33
2022-11-16T21:28:20.125Z,20.20
2022-11-16T21:31:05.516Z,21.20
2022-11-16T21:33:34.004Z,21.40
2022-11-16T21:36:11.097Z,17.55
2022-11-16T21:39:06.905Z,19.77
2022-11-16T21:41:35.663Z,22.70
2022-11-16T21:44:10.564Z,22.58
2022-11-16T21:46:37.800Z,21.55
2022-11-16T21:49:21.393Z,19.90
2022-11-16T21:51:50.012Z,21.52
2022-11-16T21:54:48.510Z,22.60
2022-11-16T21:57:17.441Z,25.50
2022-11-16T21:59:46.967Z,18.88
2022-11-16T22:02:15.349Z,18.83
2022-11-16T22:05:02.603Z,20.40
2022-11-16T22:07:39.249Z,23.27
2022-11-16T22:10:09.957Z,23.65
2022-11-16T22:12:38.660Z,22.23
2022-11-16T22:15:09.266Z,20.90
2022-11-16T22:17:36.618Z,20.77
2022-11-16T22:20:03.727Z,18.75
2022-11-16T22:22:31.122Z,19.95
2022-11-16T22:25:01.972Z,19.88
2022-11-16T22:27:29.258Z,16.52
2022-11-16T22:30:03.198Z,18.52
2022-11-16T22:32:32.495Z,19.25
2022-11-16T22:35:06.942Z,24.10
2022-11-16T22:37:33.888Z,16.70
2022-11-16T22:40:01.275Z,18.63
2022-11-16T22:42:29.482Z,17.38
2022-11-16T22:44:56.375Z,16.00
2022-11-16T22:47:23.268Z,16.40
2022-11-16T22:49:51.367Z,16.67
2022-11-16T22:52:32.306Z,16.90
2022-11-16T22:54:59.255Z,18.50
2022-11-16T22:57:26.754Z,20.05
2022-11-16T23:00:00.675Z,19.23
2022-11-16T23:02:35.181Z,17.23
2022-11-16T23:05:03.853Z,19.13
2022-11-16T23:07:34.228Z,19.65
2022-11-16T23:10:02.329Z,24.90
2022-11-16T23:12:48.888Z,19.50
2022-11-16T23:15:35.692Z,21.88
2022-11-16T23:18:03.463Z,22.88
2022-11-16T23:20:51.399Z,22.48
2022-11-16T23:23:38.570Z,22.63
2022-11-16T23:26:30.327Z,24.60
2022-11-16T23:28:58.374Z,25.95
2022-11-16T23:31:27.194Z,31.60
2022-11-16T23:33:55.963Z,24.73
2022-11-16T23:36:25.822Z,24.00
2022-11-16T23:38:52.999Z,30.63
2022-11-16T23:41:40.496Z,26.00
2022-11-16T23:44:09.628Z,27.67
2022-11-16T23:46:37.251Z,31.88
2022-11-16T23:49:04.188Z,30.27
2022-11-16T23:51:32.880Z,26.52
2022-11-16T23:54:11.599Z,30.15
